Latest Weather Observations for Bairnsdale

IDV60801

Issued at 9:52 am EDT Sunday 20 January 2019 (issued every 10 minutes, with the page automatically refreshed every 10 minutes)

About weather observations | Map of weather stations | Latest weather observations for VIC | Other Formats
Station Details ID: 085279 Name: BAIRNSDALE AIRPORT Lat: -37.88 Lon: 147.57 Height: 49.4 m
Data from the previous 72 hours. | See also: Recent months at Bairnsdale
Date/Time
EDT
Temp
°C
App
Temp
°C
Dew
Point
°C
Rel
Hum
%
Delta-T
°C
Wind Press
QNH
hPa
Press
MSL
hPa
Rain since
9am
mm
Dir  Spd
km/h
Gust
km/h
Spd
kts
Gust
kts
20/09:30am 19.6 17.6 11.6 60 4.4 W 13 19 7 10 1021.2 1021.1 0.0
20/09:00am 18.3 16.0 11.6 65 3.7 WNW 15 20 8 11 1021.3 1021.2 0.0
20/08:30am 17.4 15.1 11.7 69 3.1 W 15 20 8 11 1021.5 1021.4 0.0
20/08:00am 16.0 14.0 11.4 74 2.5 WNW 13 17 7 9 1021.4 1021.3 0.0
20/07:30am 14.6 13.3 11.4 81 1.7 WNW 9 13 5 7 1021.4 1021.3 0.0
20/07:00am 12.8 11.8 10.9 88 1.0 NW 7 9 4 5 1021.3 1021.2 0.0
20/06:30am 11.8 10.1 10.0 89 0.9 W 9 11 5 6 1021.2 1021.1 0.0
20/06:00am 11.5 9.4 9.8 89 0.9 NW 11 13 6 7 1021.1 1021.0 0.0
20/05:30am 11.9 10.2 10.0 88 1.0 NW 9 13 5 7 1020.9 1020.8 0.0
20/05:00am 11.7 10.0 9.8 88 1.0 WNW 9 9 5 5 1020.7 1020.6 0.0
20/04:30am 11.5 9.6 9.2 86 1.2 NW 9 9 5 5 1020.4 1020.3 0.0
20/04:00am 12.5 11.1 9.7 83 1.4 WSW 7 7 4 4 1020.7 1020.6 0.0
20/03:30am 12.8 11.0 9.6 81 1.6 W 9 9 5 5 1021.0 1020.9 0.0
20/03:00am 13.6 11.9 9.8 78 2.0 W 9 15 5 8 1021.5 1021.4 0.0
20/02:30am 13.9 12.4 10.7 81 1.7 WNW 9 11 5 6 1021.6 1021.5 0.0
20/02:00am 14.5 13.4 12.0 85 1.3 W 9 13 5 7 1021.8 1021.7 0.0
20/01:30am 14.4 13.0 12.1 86 1.2 WNW 11 17 6 9 1021.8 1021.7 0.0
20/01:00am 13.8 12.9 11.5 86 1.2 NW 7 11 4 6 1021.8 1021.7 0.0
20/12:30am 14.9 14.4 12.0 83 1.6 NNW 6 9 3 5 1022.1 1022.0 0.0
20/12:00am 15.3 14.3 12.2 82 1.7 NNE 9 11 5 6 1021.8 1021.7 0.0
 
Date/Time
EDT
Temp
°C
App
Temp
°C
Dew
Point
°C
Rel
Hum
%
Delta-T
°C
Wind Press
QNH
hPa
Press
MSL
hPa
Rain since
9am
mm
Dir  Spd
km/h
Gust
km/h
Spd
kts
Gust
kts
19/11:30pm 15.8 15.3 12.2 79 2.0 NNE 6 7 3 4 1021.8 1021.7 0.0
19/11:00pm 16.4 15.4 12.4 77 2.2 NE 9 9 5 5 1021.9 1021.8 0.0
19/10:30pm 16.4 15.4 12.2 76 2.3 NE 9 11 5 6 1021.8 1021.7 0.0
19/10:00pm 16.6 15.6 12.2 75 2.4 NE 9 13 5 7 1021.7 1021.6 0.0
19/09:30pm 17.6 16.2 12.1 70 3.0 SE 11 13 6 7 1021.4 1021.3 0.0
19/09:00pm 18.2 16.8 12.2 68 3.3 SE 11 15 6 8 1021.0 1020.9 0.0
19/08:30pm 18.9 16.6 11.9 64 3.9 SSE 15 20 8 11 1020.7 1020.6 0.0
19/08:00pm 19.8 16.7 12.1 61 4.3 S 20 28 11 15 1020.5 1020.4 0.0
19/07:30pm 20.5 17.5 12.0 58 4.8 SSE 19 24 10 13 1020.2 1020.1 0.0
19/07:00pm 20.9 18.4 12.3 58 4.8 SE 17 24 9 13 1020.1 1020.0 0.0
19/06:30pm 21.3 18.4 12.4 57 5.0 SSE 19 24 10 13 1020.0 1019.9 0.0
19/06:00pm 21.6 18.4 13.0 58 4.9 SSE 22 30 12 16 1019.8 1019.7 0.0
19/05:30pm 22.0 19.2 13.1 57 5.1 SE 20 30 11 16 1019.8 1019.7 0.0
19/05:00pm 22.2 18.4 12.5 54 5.5 SSE 24 30 13 16 1019.8 1019.7 0.0
19/04:30pm 22.5 18.5 11.9 51 6.0 SSE 24 35 13 19 1020.0 1019.9 0.0
19/04:00pm 22.8 18.7 11.5 49 6.3 S 24 32 13 17 1020.0 1019.9 0.0
19/03:30pm 22.4 18.6 11.2 49 6.2 SE 22 32 12 17 1020.0 1019.9 0.0
19/03:00pm 22.1 17.8 10.9 49 6.2 SE 24 33 13 18 1019.9 1019.8 0.0
19/02:30pm 22.8 19.1 11.5 49 6.3 SSE 22 32 12 17 1019.7 1019.6 0.0
19/02:00pm 24.0 20.5 12.3 48 6.7 SSE 22 33 12 18 1019.8 1019.7 0.0
19/01:30pm 25.1 22.5 10.6 40 8.1 SSE 15 28 8 15 1019.7 1019.6 0.0
19/01:00pm 23.4 20.1 9.4 41 7.6 SSW 17 26 9 14 1020.0 1019.9 0.0
19/12:30pm 23.3 21.1 10.7 45 7.0 SW 13 20 7 11 1020.1 1020.0 0.0
19/12:00pm 22.4 20.1 10.5 47 6.5 WSW 13 22 7 12 1020.1 1020.0 0.0
19/11:30am 21.5 20.1 10.9 51 5.8 SW 9 19 5 10 1020.2 1020.1 0.0
19/11:00am 20.8 18.5 10.6 52 5.6 SW 13 22 7 12 1020.1 1020.0 0.0
19/10:30am 19.6 18.3 11.4 59 4.5 W 9 17 5 9 1020.3 1020.2 0.0
19/10:00am 18.8 16.7 11.1 61 4.2 W 13 19 7 10 1020.2 1020.1 0.0
19/09:30am 18.4 15.7 10.3 59 4.3 SW 15 20 8 11 1020.3 1020.2 0.0
19/09:00am 18.3 15.2 10.4 60 4.2 SW 17 20 9 11 1020.1 1020.0 2.4
19/08:30am 17.8 15.8 11.6 67 3.4 WSW 13 20 7 11 1019.8 1019.7 2.4
19/08:00am 17.6 16.7 12.5 72 2.8 W 9 13 5 7 1019.4 1019.3 2.4
19/07:30am 17.2 16.1 12.1 72 2.8 WSW 9 13 5 7 1019.0 1018.9 2.4
19/07:00am 16.8 14.9 11.9 73 2.7 SW 13 17 7 9 1018.6 1018.5 2.4
19/06:30am 16.8 14.4 12.5 76 2.4 SSW 17 20 9 11 1018.2 1018.1 2.4
19/06:00am 16.9 15.3 12.8 77 2.3 SW 13 15 7 8 1017.9 1017.8 2.4
19/05:30am 17.2 15.1 12.5 74 2.6 W 15 22 8 12 1017.1 1017.0 2.4
19/05:00am 17.4 15.0 12.7 74 2.6 WSW 17 22 9 12 1016.6 1016.5 2.4
19/04:30am 17.8 15.1 12.9 73 2.7 WSW 19 26 10 14 1015.9 1015.8 2.4
19/04:00am 17.9 16.1 13.2 74 2.6 WSW 15 22 8 12 1015.7 1015.5 2.4
19/03:30am 18.1 16.6 13.2 73 2.8 W 13 22 7 12 1015.4 1015.2 2.4
19/03:00am 18.1 16.2 13.0 72 2.9 W 15 20 8 11 1015.3 1015.1 2.4
19/02:30am 18.2 16.7 13.1 72 2.9 W 13 19 7 10 1015.6 1015.4 2.4
19/02:00am 18.4 16.5 13.1 71 3.0 W 15 22 8 12 1016.1 1016.0 2.4
19/01:30am 18.6 16.3 13.0 70 3.2 W 17 24 9 13 1016.4 1016.3 2.4
19/01:00am 18.7 16.1 13.1 70 3.2 WSW 19 28 10 15 1015.6 1015.4 2.4
19/12:30am 18.8 15.2 13.2 70 3.2 WSW 24 35 13 19 1015.6 1015.4 2.4
19/12:00am 19.3 14.7 12.3 64 3.9 WSW 28 39 15 21 1015.1 1014.9 2.4
 
Date/Time
EDT
Temp
°C
App
Temp
°C
Dew
Point
°C
Rel
Hum
%
Delta-T
°C
Wind Press
QNH
hPa
Press
MSL
hPa
Rain since
9am
mm
Dir  Spd
km/h
Gust
km/h
Spd
kts
Gust
kts
18/11:54pm 19.6 15.8 12.4 63 4.0 WSW 24 39 13 21 1015.0 1014.8 2.4
18/11:30pm 19.5 20.7 17.3 87 1.3 WSW 7 20 4 11 1015.0 1014.8 2.4
18/11:00pm 19.5 20.4 17.5 88 1.2 SSW 9 13 5 7 1014.4 1014.2 2.4
18/10:30pm 19.8 19.3 17.8 88 1.2 SSW 17 22 9 12 1014.0 1013.8 2.4
18/10:17pm 19.9 18.9 17.9 88 1.2 SSW 20 26 11 14 1014.7 1014.5 2.4
18/10:00pm 20.4 18.9 17.8 85 1.6 SSW 22 30 12 16 1012.7 1012.5 2.2
18/09:30pm 20.6 18.6 18.2 86 1.5 S 26 33 14 18 1012.5 1012.3 2.2
18/09:00pm 21.1 18.9 18.7 86 1.5 SSW 28 37 15 20 1012.0 1011.8 2.2
18/08:30pm 22.5 20.5 19.1 81 2.2 SSW 28 39 15 21 1011.4 1011.2 2.2
18/08:26pm 22.7 21.1 19.3 81 2.2 SSW 26 35 14 19 1011.1 1010.9 2.2
18/08:00pm 25.4 25.9 19.3 69 3.9 SSW 15 37 8 20 1009.1 1008.9 2.2
18/07:30pm 28.3 29.6 19.2 57 5.9 WSW 11 15 6 8 1008.9 1008.7 2.2
18/07:00pm 27.4 30.3 21.0 68 4.3 NNW 7 9 4 5 1007.3 1007.2 2.2
18/06:30pm 25.5 27.0 20.5 74 3.3 WNW 13 17 7 9 1007.4 1007.3 2.2
18/06:00pm 25.2 26.7 20.5 75 3.1 NNW 13 19 7 10 1007.2 1007.1 2.2
18/05:30pm 24.6 25.9 20.1 76 2.9 NNW 13 20 7 11 1007.5 1007.4 2.2
18/05:00pm 23.5 23.3 19.8 80 2.4 N 20 30 11 16 1007.6 1007.5 2.0
18/04:36pm 25.2 24.3 17.7 63 4.7 NNW 19 50 10 27 1009.0 1008.8 0.4
18/04:34pm 25.1 25.2 18.3 66 4.3 N 15 30 8 16 1008.0 1007.9 0.4
18/04:30pm 25.3 26.2 18.5 66 4.3 NNE 11 15 6 8 1007.7 1007.6 0.4
18/04:19pm 25.5 27.2 18.4 65 4.5 NW 7 13 4 7 1007.0 1006.9 0.4
18/04:00pm 25.0 24.6 18.0 65 4.4 WSW 17 28 9 15 1009.1 1008.9 0.4
18/03:30pm 29.0 26.5 17.2 49 7.4 SSW 26 37 14 20 1008.7 1008.5 0.0
18/03:20pm 27.9 22.7 17.4 52 6.6 SSW 41 59 22 32 1009.6 1009.4 0.0
18/03:17pm 28.2 24.0 17.1 51 7.0 SSW 35 59 19 32 1009.7 1009.5 0.0
18/03:15pm 30.4 27.4 17.8 46 8.1 S 30 50 16 27 1009.4 1009.2 0.0
18/03:12pm 30.9 29.5 16.9 43 8.8 S 20 43 11 23 1009.1 1008.9 0.0
18/03:00pm 31.6 33.2 18.2 44 8.7 SE 7 13 4 7 1008.7 1008.5 0.0
18/02:30pm 31.8 32.8 18.7 45 8.5 NE 11 15 6 8 1007.7 1007.6 0.0
18/02:00pm 32.0 32.8 15.9 38 10.1 E 6 11 3 6 1007.1 1007.0 0.0
18/01:30pm 32.1 32.5 16.4 39 9.9 NW 9 17 5 9 1007.2 1007.1 0.0
18/01:00pm 31.7 31.4 16.4 39 9.6 NW 13 17 7 9 1007.3 1007.2 0.0
18/12:30pm 30.1 31.2 17.2 46 8.2 NNE 7 11 4 6 1007.1 1007.0 0.0
18/12:00pm 27.8 29.4 17.9 54 6.3 SE 6 9 3 5 1007.5 1007.4 0.0
18/11:30am 26.5 27.8 18.4 61 5.2 SSE 9 11 5 6 1008.0 1007.9 0.0
18/11:00am 25.7 28.4 18.6 65 4.5 NNE 2 6 1 3 1008.1 1008.0 0.0
18/10:30am 25.6 26.2 17.8 62 4.9 NNW 11 17 6 9 1008.3 1008.2 0.0
18/10:00am 26.0 24.7 16.8 57 5.7 NNE 19 24 10 13 1007.6 1007.5 0.0
18/09:30am 24.6 23.9 17.3 64 4.5 N 17 30 9 16 1008.1 1008.0 0.0
18/09:00am 23.9 23.1 17.9 69 3.8 NNE 19 26 10 14 1008.6 1008.4 2.6
18/08:30am 24.1 22.0 17.1 65 4.3 N 24 32 13 17 1009.7 1009.5 2.4
18/08:00am 23.5 22.4 17.3 68 3.8 NNW 19 28 10 15 1009.8 1009.6 2.4
18/07:55am 23.7 23.0 17.4 68 3.9 NNW 17 28 9 15 1009.7 1009.5 2.4
18/07:30am 22.4 20.7 18.0 76 2.7 NE 24 35 13 19 1007.6 1007.5 2.4
18/07:00am 22.4 21.7 18.2 77 2.6 NNE 19 32 10 17 1008.7 1008.5 2.0
18/06:30am 21.7 20.5 18.5 82 2.0 NE 22 28 12 15 1008.5 1008.3 1.2
18/06:18am 21.5 20.6 18.3 82 2.0 NNE 20 26 11 14 1008.9 1008.7 1.0
18/06:04am 22.3 23.1 18.1 77 2.6 NW 11 24 6 13 1010.1 1009.9 0.6
18/06:00am 22.7 23.3 17.8 74 3.1 NW 11 28 6 15 1010.3 1010.1 0.4
18/05:30am 23.5 23.0 17.7 70 3.6 NNE 17 24 9 13 1008.9 1008.7 0.0
18/05:00am 22.7 22.4 18.3 76 2.8 SE 17 24 9 13 1007.4 1007.3 0.0
18/04:56am 23.0 22.3 18.3 75 3.0 SSE 19 24 10 13 1007.8 1007.7 0.0
18/04:30am 22.5 23.4 18.3 77 2.6 SSW 11 15 6 8 1009.9 1009.7 0.0
18/04:00am 21.8 22.3 16.5 72 3.2 NW 9 15 5 8 1009.4 1009.2 0.0
18/03:30am 22.2 22.6 16.2 69 3.6 SW 9 13 5 7 1007.8 1007.7 0.0
18/03:00am 21.2 21.9 16.0 72 3.1 NW 7 9 4 5 1007.9 1007.8 0.0
18/02:30am 22.1 24.3 16.4 70 3.5 CALM 0 4 0 2 1008.7 1008.5 0.0
18/02:00am 21.8 21.9 16.5 72 3.2 SSW 11 15 6 8 1009.1 1008.9 0.0
18/01:30am 22.3 22.2 17.0 72 3.3 SW 13 15 7 8 1009.4 1009.2 0.0
18/01:00am 23.4 25.2 17.4 69 3.7 NNW 4 6 2 3 1009.3 1009.1 0.0
18/12:30am 24.4 25.5 18.1 68 4.0 NNE 9 11 5 6 1009.1 1008.9 0.0
18/12:00am 23.8 25.2 17.8 69 3.8 NE 7 9 4 5 1009.0 1008.8 0.0
 
Date/Time
EDT
Temp
°C
App
Temp
°C
Dew
Point
°C
Rel
Hum
%
Delta-T
°C
Wind Press
QNH
hPa
Press
MSL
hPa
Rain since
9am
mm
Dir  Spd
km/h
Gust
km/h
Spd
kts
Gust
kts
17/11:30pm 23.9 25.0 17.2 66 4.2 NNW 7 9 4 5 1009.0 1008.8 0.0
17/11:00pm 24.4 25.7 17.6 66 4.3 NNW 7 9 4 5 1009.0 1008.8 0.0
17/10:30pm 25.1 26.6 17.6 63 4.7 WNW 6 11 3 6 1009.0 1008.8 0.0
17/10:00pm 24.6 25.5 17.6 65 4.4 NW 9 11 5 6 1009.0 1008.8 0.0
17/09:30pm 24.8 26.1 17.5 64 4.6 NNW 7 9 4 5 1008.9 1008.7 0.0
17/09:00pm 26.2 27.6 17.8 60 5.3 NNE 7 11 4 6 1008.3 1008.2 0.0
17/08:30pm 26.7 28.2 18.0 59 5.5 ESE 7 11 4 6 1007.8 1007.7 0.0
17/08:00pm 27.6 29.2 18.3 57 5.9 NE 7 9 4 5 1007.5 1007.4 0.0
17/07:30pm 27.9 30.5 18.3 56 6.1 NNE 2 7 1 4 1007.5 1007.4 0.0
17/07:00pm 27.5 27.9 18.2 57 5.9 NE 13 17 7 9 1007.5 1007.4 0.0
17/06:30pm 27.8 27.1 17.3 52 6.6 ENE 17 20 9 11 1007.4 1007.3 0.0
17/06:00pm 28.3 29.9 17.8 53 6.7 SE 6 9 3 5 1008.1 1008.0 0.0
17/05:30pm 27.4 27.8 18.1 57 5.9 S 13 17 7 9 1008.8 1008.6 0.0
17/05:00pm 27.8 26.6 18.5 57 6.0 SSW 22 39 12 21 1009.3 1009.1 0.0
17/04:30pm 28.4 29.8 17.3 51 7.0 ENE 6 9 3 5 1007.8 1007.7 0.0
17/04:00pm 26.5 24.7 17.8 58 5.5 NNE 24 32 13 17 1007.1 1007.0 0.0
17/03:30pm 27.3 27.9 17.8 56 6.0 NE 11 17 6 9 1008.2 1008.1 0.0
17/03:00pm 27.3 27.7 17.2 54 6.3 SE 11 15 6 8 1008.2 1008.1 0.0
17/02:30pm 26.9 27.9 18.7 60 5.3 SSE 11 17 6 9 1009.2 1009.0 0.0
17/02:00pm 25.4 26.2 18.1 64 4.6 SSE 11 17 6 9 1009.1 1008.9 0.0
17/01:30pm 25.2 26.0 18.2 65 4.4 S 11 17 6 9 1008.9 1008.7 0.0
17/01:00pm 24.8 24.1 18.3 67 4.1 S 19 24 10 13 1009.2 1009.0 0.0
17/12:30pm 24.8 23.9 16.8 61 4.9 SSE 17 22 9 12 1008.5 1008.3 0.0
17/12:00pm 26.4 24.0 14.5 48 7.1 S 20 28 11 15 1008.8 1008.6 0.0
17/11:30am 26.8 25.9 14.9 48 7.2 SSW 13 19 7 10 1008.1 1008.0 0.0
17/11:00am 27.3 26.2 15.3 48 7.3 SSW 15 20 8 11 1007.8 1007.7 0.0
17/10:30am 26.5 26.2 14.3 47 7.3 N 9 11 5 6 1007.5 1007.4 0.0
17/10:00am 24.9 24.1 14.1 51 6.4 NNE 11 15 6 8 1007.5 1007.4 0.0

Other Formats:

Comma delimited format used in spreadsheet applications
http://www.bom.gov.au/fwo/IDV60801/IDV60801.94912.axf

JavaScript Object Notation format (JSON) in row-major order
http://www.bom.gov.au/fwo/IDV60801/IDV60801.94912.json